Time;durP1;ratioP1;P1;durP2;ratioP2;P2;SDS_P1;SDS_P2;PMS_P1;PMS_P2;Temp;Humidity;BMP_temperature;BMP_pressure;BME280_temperature;BME280_humidity;BME280_pressure;Samples;Min_cycle;Max_cycle;Signal;HPM_P1;HPM_P2
2023/08/11 00:01:44;;;;;;;133.45;124.47;;;23.70;99.90;;;;;;5032430;28;20049;-74
2023/08/11 00:04:10;;;;;;;153.60;143.75;;;23.60;99.90;;;;;;5032865;28;20029;-74
2023/08/11 00:06:37;;;;;;;145.27;136.05;;;23.60;99.90;;;;;;5031632;28;20494;-74
2023/08/11 00:09:06;;;;;;;208.68;196.30;;;23.50;99.90;;;;;;5033285;28;20049;-74
2023/08/11 00:11:33;;;;;;;279.52;262.85;;;23.50;99.90;;;;;;5032761;28;20029;-74
2023/08/11 00:13:59;;;;;;;177.15;166.43;;;23.50;99.90;;;;;;5033096;28;20025;-74
2023/08/11 00:16:25;;;;;;;161.88;151.48;;;23.50;99.90;;;;;;5030894;28;20037;-74
2023/08/11 00:18:51;;;;;;;83.13;76.90;;;23.50;99.90;;;;;;5032461;28;20352;-74
2023/08/11 00:21:17;;;;;;;54.00;49.00;;;23.50;99.90;;;;;;5031349;28;20037;-74
2023/08/11 00:23:44;;;;;;;49.13;44.47;;;23.50;99.90;;;;;;5031726;28;20025;-74
2023/08/11 00:26:10;;;;;;;103.43;96.13;;;23.50;99.90;;;;;;5031346;28;20033;-74
2023/08/11 00:28:36;;;;;;;97.88;91.13;;;23.50;99.90;;;;;;5015192;28;20021;-74
2023/08/11 00:31:02;;;;;;;124.90;116.63;;;23.50;99.90;;;;;;5030748;28;20029;-74
2023/08/11 00:33:28;;;;;;;79.07;72.43;;;23.50;99.90;;;;;;5031228;28;20037;-74
2023/08/11 00:35:55;;;;;;;91.80;85.05;;;23.50;99.90;;;;;;5032438;28;20350;-74
2023/08/11 00:38:22;;;;;;;71.85;65.55;;;23.50;99.90;;;;;;5032488;28;20033;-74
2023/08/11 00:40:48;;;;;;;61.60;56.55;;;23.60;99.90;;;;;;5032311;28;20028;-74
2023/08/11 00:43:14;;;;;;;69.63;63.60;;;23.50;99.90;;;;;;5031248;28;20025;-74
2023/08/11 00:45:41;;;;;;;69.88;64.13;;;23.60;99.90;;;;;;5031868;28;20033;-74
2023/08/11 00:48:07;;;;;;;64.43;58.90;;;23.50;99.90;;;;;;5014595;28;20458;-74
2023/08/11 00:50:33;;;;;;;59.70;54.67;;;23.50;99.90;;;;;;5032121;28;20038;-74
2023/08/11 00:53:01;;;;;;;131.80;123.10;;;23.60;99.90;;;;;;5031090;28;20517;-74
2023/08/11 00:55:27;;;;;;;102.32;94.95;;;23.50;99.90;;;;;;5030858;28;20394;-74
2023/08/11 00:57:53;;;;;;;83.00;76.22;;;23.50;99.90;;;;;;5014983;28;20056;-74
2023/08/11 01:00:19;;;;;;;94.63;87.53;;;23.50;99.90;;;;;;5029926;28;20030;-74
2023/08/11 01:02:46;;;;;;;71.30;65.88;;;23.40;99.90;;;;;;5031944;28;20041;-73
2023/08/11 01:05:14;;;;;;;87.07;80.78;;;23.40;99.90;;;;;;5030755;28;20402;-74
2023/08/11 01:07:52;;;;;;;59.28;54.13;;;23.40;99.90;;;;;;5030933;28;20025;-74
2023/08/11 01:10:43;;;;;;;78.15;71.82;;;23.40;99.90;;;;;;5031835;28;20029;-74
2023/08/11 01:13:15;;;;;;;83.15;77.35;;;23.40;99.90;;;;;;5032137;28;20022;-73
2023/08/11 01:15:57;;;;;;;87.35;81.05;;;23.30;99.90;;;;;;5030076;28;20033;-74
2023/08/11 01:18:24;;;;;;;74.13;68.65;;;23.30;99.90;;;;;;4996576;28;20030;-74
2023/08/11 01:20:53;;;;;;;121.80;113.47;;;23.20;99.90;;;;;;5032863;28;20463;-73
2023/08/11 01:23:20;;;;;;;96.30;88.85;;;23.10;99.90;;;;;;5031025;28;20033;-74
2023/08/11 01:25:49;;;;;;;70.18;64.20;;;23.10;99.90;;;;;;5030525;28;20036;-74
2023/08/11 01:28:15;;;;;;;42.60;38.53;;;23.10;99.90;;;;;;5030836;28;20505;-74
2023/08/11 01:30:41;;;;;;;34.63;30.95;;;23.20;99.90;;;;;;5029976;28;20033;-74
2023/08/11 01:33:07;;;;;;;43.13;38.22;;;23.20;99.90;;;;;;5030677;28;20085;-74
2023/08/11 01:35:33;;;;;;;48.00;43.17;;;23.20;99.90;;;;;;5030434;28;20021;-74
2023/08/11 01:37:59;;;;;;;41.20;34.05;;;23.10;99.90;;;;;;5031823;28;20033;-74
2023/08/11 01:40:26;;;;;;;38.63;28.75;;;23.00;99.90;;;;;;5031629;28;20471;-74
2023/08/11 01:42:52;;;;;;;52.00;47.15;;;23.10;99.90;;;;;;5030756;28;20037;-74
2023/08/11 01:45:19;;;;;;;35.95;30.30;;;23.10;99.90;;;;;;5029886;28;20030;-74
2023/08/11 01:47:45;;;;;;;40.70;29.88;;;23.10;99.90;;;;;;5030701;28;20040;-74
2023/08/11 01:50:13;;;;;;;30.45;26.13;;;23.10;99.90;;;;;;5030160;28;20025;-74
2023/08/11 01:52:42;;;;;;;45.90;41.72;;;23.10;99.90;;;;;;5030661;28;20045;-74
2023/08/11 01:55:09;;;;;;;54.30;49.40;;;23.10;99.90;;;;;;5014011;28;20038;-74
2023/08/11 01:57:39;;;;;;;48.60;44.45;;;23.10;99.90;;;;;;5010329;28;20045;-74
2023/08/11 02:00:10;;;;;;;39.78;35.78;;;23.10;99.90;;;;;;5026549;28;20037;-74
2023/08/11 02:02:39;;;;;;;50.88;45.78;;;23.10;99.90;;;;;;5024213;28;20049;-74
2023/08/11 02:05:07;;;;;;;67.60;62.15;;;23.10;99.90;;;;;;5029069;28;20037;-74
2023/08/11 02:07:40;;;;;;;48.55;44.08;;;23.00;99.90;;;;;;5028692;28;20044;-74
2023/08/11 02:10:08;;;;;;;35.03;29.75;;;23.00;99.90;;;;;;5028951;28;20491;-74
2023/08/11 02:12:35;;;;;;;43.33;39.55;;;23.10;99.90;;;;;;5031327;28;20038;-74
2023/08/11 02:15:02;;;;;;;56.60;51.92;;;23.00;99.90;;;;;;5032094;28;20026;-74
2023/08/11 02:17:31;;;;;;;55.88;51.10;;;23.00;99.90;;;;;;5032495;28;20490;-74
2023/08/11 02:19:58;;;;;;;56.25;51.45;;;22.80;99.90;;;;;;5033644;28;20026;-74
2023/08/11 02:22:24;;;;;;;109.82;102.90;;;22.70;99.90;;;;;;5032178;28;20060;-74
2023/08/11 02:24:50;;;;;;;111.55;104.70;;;22.60;99.90;;;;;;5033560;28;20041;-74
2023/08/11 02:27:17;;;;;;;82.43;76.18;;;22.50;99.90;;;;;;5033306;28;20049;-74
2023/08/11 02:29:44;;;;;;;57.22;52.50;;;22.50;99.90;;;;;;5033097;28;20458;-74
2023/08/11 02:32:11;;;;;;;62.67;57.90;;;22.60;99.90;;;;;;5031348;28;20037;-74
2023/08/11 02:34:38;;;;;;;40.22;36.20;;;22.70;99.90;;;;;;5032283;28;20030;-74
2023/08/11 02:37:04;;;;;;;54.95;50.45;;;22.70;99.90;;;;;;5032556;28;20034;-74
2023/08/11 02:39:30;;;;;;;60.90;55.70;;;22.70;99.90;;;;;;5032587;28;20029;-74
2023/08/11 02:41:56;;;;;;;61.15;55.85;;;22.70;99.90;;;;;;5034382;28;20390;-74
2023/08/11 02:44:22;;;;;;;192.23;179.07;;;22.70;99.90;;;;;;5034449;28;20470;-74
2023/08/11 02:46:48;;;;;;;74.13;68.70;;;22.70;99.90;;;;;;5034017;28;20052;-74
2023/08/11 02:49:14;;;;;;;109.53;102.40;;;22.70;99.90;;;;;;5013416;28;20377;-74
2023/08/11 02:51:40;;;;;;;110.18;102.55;;;22.80;99.90;;;;;;5025846;28;20045;-74
2023/08/11 02:54:06;;;;;;;180.18;168.95;;;22.80;99.90;;;;;;5033421;28;20029;-74
2023/08/11 02:56:33;;;;;;;69.88;63.85;;;22.80;99.90;;;;;;5034212;28;20025;-74
2023/08/11 02:58:59;;;;;;;45.92;41.72;;;22.80;99.90;;;;;;5032847;28;20030;-74
2023/08/11 03:01:25;;;;;;;84.22;78.10;;;22.90;99.90;;;;;;5033526;28;20509;-73
2023/08/11 03:03:52;;;;;;;65.57;60.85;;;22.90;99.90;;;;;;5033318;28;20037;-74
2023/08/11 03:06:18;;;;;;;101.80;94.95;;;22.90;99.90;;;;;;5032833;28;20021;-74
2023/08/11 03:08:44;;;;;;;80.55;74.50;;;22.90;99.90;;;;;;5034294;28;20029;-73
2023/08/11 03:11:10;;;;;;;54.90;50.40;;;22.80;99.90;;;;;;5032716;28;20037;-74
2023/08/11 03:13:37;;;;;;;41.65;37.20;;;22.90;99.90;;;;;;5033670;28;20041;-74
2023/08/11 03:16:03;;;;;;;50.03;45.72;;;22.80;99.90;;;;;;5032168;28;20044;-74
2023/08/11 03:18:30;;;;;;;61.70;56.92;;;22.90;99.90;;;;;;5032846;28;20036;-74
2023/08/11 03:20:56;;;;;;;63.38;58.70;;;22.80;99.90;;;;;;5033784;28;20375;-73
2023/08/11 03:23:22;;;;;;;49.80;45.60;;;22.70;99.90;;;;;;5032578;28;20041;-74
2023/08/11 03:25:48;;;;;;;55.08;50.47;;;22.70;99.90;;;;;;5033688;28;20021;-74
2023/08/11 03:28:14;;;;;;;55.47;50.53;;;22.80;99.90;;;;;;5033486;28;20036;-74
2023/08/11 03:30:40;;;;;;;65.20;59.83;;;22.80;99.90;;;;;;5031807;28;20018;-74
2023/08/11 03:33:07;;;;;;;56.10;51.60;;;22.90;99.90;;;;;;5033677;28;20033;-74
2023/08/11 03:35:33;;;;;;;62.85;57.50;;;22.80;99.90;;;;;;5015665;28;20034;-74
2023/08/11 03:38:00;;;;;;;74.15;68.40;;;22.90;99.90;;;;;;5032559;28;20033;-74
2023/08/11 03:40:26;;;;;;;84.18;77.80;;;22.90;99.90;;;;;;5033933;28;20038;-74
2023/08/11 03:42:53;;;;;;;103.35;96.18;;;23.00;99.90;;;;;;5033065;28;20390;-74
2023/08/11 03:45:19;;;;;;;74.28;68.35;;;23.00;99.90;;;;;;5032976;28;20478;-74
2023/08/11 03:47:45;;;;;;;86.97;80.30;;;22.90;99.90;;;;;;5033331;28;20025;-74
2023/08/11 03:50:11;;;;;;;77.20;71.15;;;23.00;99.90;;;;;;5032011;28;20037;-74
2023/08/11 03:52:38;;;;;;;46.53;36.03;;;23.00;99.90;;;;;;5033272;28;20045;-74
2023/08/11 03:55:05;;;;;;;54.80;49.75;;;23.00;99.90;;;;;;5032030;28;20025;-74
2023/08/11 03:57:32;;;;;;;76.10;69.80;;;23.10;99.90;;;;;;5031443;28;20025;-73
2023/08/11 03:59:58;;;;;;;71.25;65.53;;;23.00;99.90;;;;;;5033244;28;20028;-74
2023/08/11 04:02:25;;;;;;;38.25;34.22;;;23.10;99.90;;;;;;5032292;28;20049;-74
2023/08/11 04:04:51;;;;;;;38.20;31.77;;;23.10;99.90;;;;;;5032142;28;20026;-74
2023/08/11 04:07:17;;;;;;;41.42;36.33;;;23.10;99.90;;;;;;5031700;28;20037;-74
2023/08/11 04:09:46;;;;;;;40.40;35.92;;;23.10;99.90;;;;;;5033148;28;20028;-74
2023/08/11 04:12:12;;;;;;;45.55;40.45;;;23.10;99.90;;;;;;5032518;28;20034;-74
2023/08/11 04:14:38;;;;;;;55.80;50.55;;;23.20;99.90;;;;;;5033075;28;20505;-74
2023/08/11 04:17:04;;;;;;;58.47;54.00;;;23.10;99.90;;;;;;5030887;28;20037;-74
2023/08/11 04:19:32;;;;;;;74.13;68.38;;;23.10;99.90;;;;;;5033017;28;20025;-74
2023/08/11 04:21:58;;;;;;;101.10;94.10;;;23.00;99.90;;;;;;5031466;28;20398;-74
2023/08/11 04:24:25;;;;;;;47.17;42.92;;;23.00;99.90;;;;;;5031676;28;20033;-74
2023/08/11 04:26:51;;;;;;;45.42;41.25;;;23.00;99.90;;;;;;5031104;28;20033;-74
2023/08/11 04:29:17;;;;;;;53.70;49.60;;;23.00;99.90;;;;;;5031486;28;20026;-74
2023/08/11 04:31:43;;;;;;;43.83;39.10;;;23.00;99.90;;;;;;5031749;28;20034;-74
2023/08/11 04:34:10;;;;;;;49.03;44.60;;;23.00;99.90;;;;;;5014783;28;20040;-73
2023/08/11 04:36:37;;;;;;;39.35;35.30;;;23.00;99.90;;;;;;5032130;28;20021;-74
2023/08/11 04:39:04;;;;;;;29.15;25.88;;;23.00;99.90;;;;;;5032534;28;20028;-74
2023/08/11 04:41:31;;;;;;;32.53;28.70;;;23.00;99.90;;;;;;5030690;28;20475;-73
2023/08/11 04:43:57;;;;;;;27.83;24.88;;;23.00;99.90;;;;;;5031384;28;20033;-74
2023/08/11 04:46:24;;;;;;;33.53;24.98;;;23.00;99.90;;;;;;5030445;28;20056;-74
2023/08/11 04:48:50;;;;;;;40.55;36.33;;;23.00;99.90;;;;;;5032215;28;20034;-73
2023/08/11 04:51:16;;;;;;;36.38;33.03;;;22.90;99.90;;;;;;5031969;28;20030;-74
2023/08/11 04:53:42;;;;;;;42.05;38.28;;;22.90;99.90;;;;;;5014278;28;20056;-74
2023/08/11 04:56:09;;;;;;;38.45;34.78;;;23.00;99.90;;;;;;5032147;28;20501;-73
2023/08/11 04:58:38;;;;;;;51.58;47.47;;;22.90;99.90;;;;;;5032422;28;20030;-74
2023/08/11 05:01:04;;;;;;;38.15;33.05;;;22.90;99.90;;;;;;5031864;28;20041;-74
2023/08/11 05:03:31;;;;;;;40.20;36.55;;;23.00;99.90;;;;;;5032097;28;20042;-73
2023/08/11 05:05:57;;;;;;;39.15;34.72;;;23.00;99.90;;;;;;5032037;28;20031;-74
2023/08/11 05:08:23;;;;;;;34.28;30.35;;;23.00;99.90;;;;;;5030839;28;20040;-73
2023/08/11 05:10:49;;;;;;;33.38;30.05;;;23.00;99.90;;;;;;5031989;28;20029;-73
2023/08/11 05:13:15;;;;;;;34.13;29.25;;;23.00;99.90;;;;;;5032271;28;20037;-73
2023/08/11 05:15:41;;;;;;;40.38;36.58;;;23.00;99.90;;;;;;5031317;28;20033;-73
2023/08/11 05:18:07;;;;;;;35.45;29.95;;;23.00;99.90;;;;;;5032073;28;20041;-74
2023/08/11 05:20:33;;;;;;;61.60;57.47;;;23.00;99.90;;;;;;5030765;28;20045;-74
2023/08/11 05:22:59;;;;;;;57.47;52.78;;;23.00;99.90;;;;;;5031704;28;20033;-73
2023/08/11 05:25:26;;;;;;;41.03;37.20;;;23.00;99.90;;;;;;5030659;28;20033;-74
2023/08/11 05:27:52;;;;;;;48.63;44.63;;;23.00;99.90;;;;;;5031992;28;20056;-74
2023/08/11 05:30:18;;;;;;;32.58;29.33;;;23.00;99.90;;;;;;5031158;28;20022;-74
2023/08/11 05:32:44;;;;;;;35.53;32.17;;;23.00;99.90;;;;;;5030739;28;20059;-73
2023/08/11 05:35:12;;;;;;;33.13;30.15;;;23.00;99.90;;;;;;5031698;28;20021;-74
2023/08/11 05:37:38;;;;;;;32.53;29.63;;;23.00;99.90;;;;;;5011850;28;20045;-73
2023/08/11 05:40:07;;;;;;;48.33;45.08;;;23.00;99.90;;;;;;5011128;28;20030;-74
2023/08/11 05:42:33;;;;;;;30.20;27.15;;;23.00;99.90;;;;;;5031270;28;20021;-74
2023/08/11 05:44:59;;;;;;;31.73;28.85;;;23.00;99.90;;;;;;5031889;28;20041;-74
2023/08/11 05:47:26;;;;;;;30.90;28.13;;;23.10;99.90;;;;;;5032528;28;20038;-73
2023/08/11 05:49:53;;;;;;;39.55;36.33;;;23.10;99.90;;;;;;5017571;28;20041;-74
2023/08/11 05:52:19;;;;;;;37.00;33.78;;;23.20;99.90;;;;;;5034912;28;20034;-76
2023/08/11 05:54:45;;;;;;;38.88;35.80;;;23.20;99.90;;;;;;5035633;28;20033;-73
2023/08/11 05:57:12;;;;;;;49.90;46.15;;;23.20;99.90;;;;;;5035400;28;20036;-74
2023/08/11 05:59:38;;;;;;;39.50;36.25;;;23.20;99.90;;;;;;5035493;28;20037;-73
2023/08/11 06:02:04;;;;;;;52.45;48.63;;;23.20;99.90;;;;;;5034737;28;20041;-74
2023/08/11 06:04:30;;;;;;;60.95;56.88;;;23.30;99.90;;;;;;5035494;28;20029;-74
2023/08/11 06:06:56;;;;;;;39.28;36.42;;;23.30;99.90;;;;;;5033541;28;20037;-74
2023/08/11 06:09:22;;;;;;;67.30;62.65;;;23.40;99.90;;;;;;5035543;28;20033;-74
2023/08/11 06:11:48;;;;;;;43.50;39.67;;;23.40;99.90;;;;;;5033641;28;20052;-73
2023/08/11 06:14:14;;;;;;;30.98;27.77;;;23.40;99.90;;;;;;5035282;28;20036;-73
2023/08/11 06:16:40;;;;;;;34.88;31.77;;;23.40;99.90;;;;;;5034517;28;20038;-74
2023/08/11 06:19:07;;;;;;;42.25;38.85;;;23.40;99.90;;;;;;5035106;28;20709;-74
2023/08/11 06:21:33;;;;;;;53.35;49.42;;;23.40;99.90;;;;;;5034525;28;20026;-73
2023/08/11 06:23:59;;;;;;;41.55;38.55;;;23.40;99.90;;;;;;5033984;28;20457;-74
2023/08/11 06:26:25;;;;;;;43.42;39.92;;;23.40;99.90;;;;;;5034698;28;20029;-74
2023/08/11 06:28:51;;;;;;;72.18;67.25;;;23.40;99.90;;;;;;5033817;28;20040;-74
2023/08/11 06:31:20;;;;;;;49.70;45.80;;;23.50;99.90;;;;;;5034073;28;20037;-74
2023/08/11 06:33:47;;;;;;;81.88;76.65;;;23.50;99.90;;;;;;5034888;28;20471;-74
2023/08/11 06:36:13;;;;;;;57.88;53.53;;;23.50;99.90;;;;;;5034233;28;20026;-74
2023/08/11 06:38:39;;;;;;;60.47;56.50;;;23.50;99.90;;;;;;5033645;28;20420;-74
2023/08/11 06:41:05;;;;;;;39.95;36.85;;;23.50;99.90;;;;;;5033320;28;20021;-74
2023/08/11 06:43:31;;;;;;;65.88;61.75;;;23.50;99.90;;;;;;5033367;28;20057;-73
2023/08/11 06:45:57;;;;;;;62.25;58.22;;;23.50;99.90;;;;;;5034036;28;20029;-74
2023/08/11 06:48:24;;;;;;;48.58;45.15;;;23.40;99.90;;;;;;5034481;28;20026;-74
2023/08/11 06:50:50;;;;;;;51.20;47.72;;;23.40;99.90;;;;;;5033904;28;20029;-74
2023/08/11 06:53:16;;;;;;;63.63;59.08;;;23.50;99.90;;;;;;5034497;28;20506;-74
2023/08/11 06:55:42;;;;;;;44.15;41.03;;;23.40;99.90;;;;;;5034222;28;20030;-74
2023/08/11 06:58:08;;;;;;;51.88;48.08;;;23.50;99.90;;;;;;5032218;28;20056;-73
2023/08/11 07:00:36;;;;;;;42.63;40.03;;;23.50;99.90;;;;;;5032424;28;20486;-74
2023/08/11 07:03:03;;;;;;;49.58;46.58;;;23.50;99.90;;;;;;5034313;28;20042;-74
2023/08/11 07:05:29;;;;;;;38.55;35.85;;;23.50;99.90;;;;;;5033778;28;20029;-74
2023/08/11 07:07:55;;;;;;;42.17;39.38;;;23.60;99.90;;;;;;5034295;28;20040;-74
2023/08/11 07:10:21;;;;;;;40.20;37.70;;;23.60;99.90;;;;;;5034019;28;20470;-74
2023/08/11 07:12:47;;;;;;;42.30;39.38;;;23.60;99.90;;;;;;5032979;28;20046;-73
2023/08/11 07:15:13;;;;;;;39.92;37.10;;;23.70;99.90;;;;;;5032205;28;20390;-74
2023/08/11 07:17:39;;;;;;;39.65;36.95;;;23.70;99.90;;;;;;5034094;28;20060;-74
2023/08/11 07:20:06;;;;;;;39.58;37.08;;;23.70;99.90;;;;;;5033659;28;20017;-73
2023/08/11 07:22:32;;;;;;;51.50;48.75;;;23.70;99.90;;;;;;5033684;28;20038;-74
2023/08/11 07:24:58;;;;;;;66.95;63.33;;;23.70;99.90;;;;;;5032635;28;20489;-74
2023/08/11 07:27:24;;;;;;;65.85;62.25;;;23.70;99.90;;;;;;5033615;28;20034;-73
2023/08/11 07:29:50;;;;;;;62.75;59.35;;;23.70;99.90;;;;;;5033971;28;20029;-74
2023/08/11 07:32:17;;;;;;;75.85;71.88;;;23.60;99.90;;;;;;5031750;28;20041;-74
2023/08/11 07:34:43;;;;;;;82.10;77.90;;;23.60;99.90;;;;;;5032320;28;20034;-74
2023/08/11 07:37:09;;;;;;;99.05;93.75;;;23.70;99.90;;;;;;5032082;28;20044;-74
2023/08/11 07:39:35;;;;;;;45.17;42.58;;;23.80;99.90;;;;;;5032391;28;20041;-73
2023/08/11 07:42:02;;;;;;;48.28;45.40;;;23.80;99.90;;;;;;5033687;28;20034;-74
2023/08/11 07:44:30;;;;;;;50.08;47.13;;;23.80;99.90;;;;;;5033250;28;20052;-74
2023/08/11 07:46:56;;;;;;;45.60;42.70;;;23.90;99.90;;;;;;5032617;28;20100;-74
2023/08/11 07:49:22;;;;;;;48.92;46.20;;;23.90;99.90;;;;;;5031320;28;20034;-74
2023/08/11 07:51:49;;;;;;;60.05;56.78;;;24.00;99.90;;;;;;5031951;28;20040;-74
2023/08/11 07:54:16;;;;;;;48.88;46.22;;;24.00;99.90;;;;;;5032113;28;20363;-74
2023/08/11 07:56:43;;;;;;;47.35;44.63;;;24.00;99.90;;;;;;5031937;28;20036;-74
2023/08/11 07:59:09;;;;;;;50.22;47.40;;;24.00;99.90;;;;;;5033290;28;20036;-74
2023/08/11 08:01:36;;;;;;;46.05;42.97;;;24.00;99.90;;;;;;5032298;28;20033;-74
2023/08/11 08:04:03;;;;;;;45.28;42.72;;;24.10;99.90;;;;;;5031828;28;20048;-73
2023/08/11 08:06:30;;;;;;;54.63;51.60;;;24.10;99.90;;;;;;5031719;28;20025;-74
2023/08/11 08:08:57;;;;;;;71.05;67.35;;;24.10;99.90;;;;;;5031747;28;20029;-74
2023/08/11 08:11:23;;;;;;;48.40;45.83;;;24.10;99.90;;;;;;5030934;28;20033;-73
2023/08/11 08:13:49;;;;;;;58.80;55.60;;;24.10;99.90;;;;;;5031871;28;20398;-74
2023/08/11 08:16:15;;;;;;;57.13;54.00;;;24.10;99.90;;;;;;5032315;28;20127;-73
2023/08/11 08:18:42;;;;;;;54.78;51.47;;;24.10;99.90;;;;;;5032666;28;20018;-74
2023/08/11 08:21:08;;;;;;;55.65;52.47;;;24.20;99.90;;;;;;5031489;28;20032;-74
2023/08/11 08:23:34;;;;;;;51.30;48.50;;;24.30;99.90;;;;;;5032639;28;20048;-74
2023/08/11 08:26:00;;;;;;;70.20;66.55;;;24.40;99.90;;;;;;5032664;28;20032;-74
2023/08/11 08:28:26;;;;;;;44.10;41.60;;;24.40;99.90;;;;;;5032553;28;20029;-74
2023/08/11 08:30:52;;;;;;;48.90;46.25;;;24.60;99.90;;;;;;5030717;28;20030;-73
2023/08/11 08:33:18;;;;;;;43.75;41.35;;;24.60;99.90;;;;;;5031216;28;20467;-74
2023/08/11 08:35:44;;;;;;;45.83;43.08;;;24.60;99.90;;;;;;5032401;28;20033;-74
2023/08/11 08:38:10;;;;;;;47.60;45.08;;;24.60;99.90;;;;;;5032670;28;20356;-73
2023/08/11 08:40:36;;;;;;;48.65;46.13;;;24.60;99.90;;;;;;5031070;28;20022;-74
2023/08/11 08:43:03;;;;;;;44.28;41.78;;;24.60;99.90;;;;;;5031458;28;20390;-74
2023/08/11 08:45:30;;;;;;;43.05;40.83;;;24.60;99.90;;;;;;5031932;28;20040;-74
2023/08/11 08:47:58;;;;;;;46.25;43.65;;;24.50;99.90;;;;;;5030939;28;20045;-75
2023/08/11 08:50:24;;;;;;;42.65;40.25;;;24.50;99.90;;;;;;5014629;28;20017;-74
2023/08/11 08:52:50;;;;;;;48.65;46.10;;;24.50;99.90;;;;;;5030919;28;20049;-74
2023/08/11 08:55:17;;;;;;;50.00;47.30;;;24.50;99.90;;;;;;5030914;28;20029;-74
2023/08/11 08:57:43;;;;;;;45.28;42.65;;;24.40;99.90;;;;;;5031096;28;20052;-74
2023/08/11 09:00:09;;;;;;;50.25;47.78;;;24.40;99.90;;;;;;5030708;28;20029;-73
2023/08/11 09:02:36;;;;;;;54.03;50.88;;;24.50;99.90;;;;;;5010653;28;20061;-74
2023/08/11 09:05:02;;;;;;;50.53;47.72;;;24.50;99.90;;;;;;5027787;28;20061;-74
2023/08/11 09:07:28;;;;;;;48.17;45.50;;;24.50;99.90;;;;;;5044040;28;20065;-74
2023/08/11 09:09:54;;;;;;;50.45;47.80;;;24.60;99.90;;;;;;5012620;28;20034;-74
2023/08/11 09:12:20;;;;;;;54.47;51.58;;;24.70;99.90;;;;;;5044127;28;20034;-74
2023/08/11 09:14:46;;;;;;;51.90;49.25;;;24.60;99.90;;;;;;5012274;28;20029;-74
2023/08/11 09:17:12;;;;;;;50.75;48.10;;;24.70;99.90;;;;;;5028246;28;20034;-74
2023/08/11 09:19:42;;;;;;;59.80;56.63;;;24.60;99.90;;;;;;5030875;28;20041;-74
2023/08/11 09:22:09;;;;;;;50.63;48.00;;;24.60;99.90;;;;;;5033061;28;20029;-73
2023/08/11 09:24:36;;;;;;;48.75;46.17;;;24.60;99.90;;;;;;5034965;28;20038;-74
2023/08/11 09:27:03;;;;;;;47.60;45.20;;;24.50;99.90;;;;;;5034521;28;20064;-74
2023/08/11 09:29:29;;;;;;;46.50;44.10;;;24.40;99.90;;;;;;5034616;28;20383;-74
2023/08/11 09:31:56;;;;;;;46.22;43.58;;;24.40;99.90;;;;;;5033914;28;20036;-74
2023/08/11 09:34:22;;;;;;;48.95;46.38;;;24.40;99.90;;;;;;5036002;28;20026;-74
2023/08/11 09:36:48;;;;;;;41.58;39.50;;;24.50;99.90;;;;;;5034432;28;20043;-73
2023/08/11 09:39:15;;;;;;;40.67;38.50;;;24.50;99.90;;;;;;5034759;28;20029;-74
2023/08/11 09:41:45;;;;;;;41.33;39.28;;;24.50;99.90;;;;;;5034412;28;20030;-74
2023/08/11 09:44:14;;;;;;;39.63;37.47;;;24.60;99.90;;;;;;5035526;28;20358;-73
2023/08/11 09:46:40;;;;;;;63.72;60.47;;;24.60;99.90;;;;;;5035002;28;20044;-74
2023/08/11 09:49:07;;;;;;;61.00;58.05;;;24.60;99.90;;;;;;5035563;28;20033;-75
2023/08/11 09:51:35;;;;;;;75.93;72.20;;;24.60;99.90;;;;;;5035213;28;20053;-74
2023/08/11 09:54:06;;;;;;;80.60;76.72;;;24.60;99.90;;;;;;5035841;28;20025;-74
2023/08/11 09:56:40;;;;;;;53.17;50.33;;;24.60;99.90;;;;;;5035254;28;20033;-74
2023/08/11 09:59:12;;;;;;;55.28;52.50;;;24.60;99.90;;;;;;5034094;28;20033;-74
2023/08/11 10:01:39;;;;;;;61.67;58.55;;;24.60;99.90;;;;;;5033426;28;20072;-74
2023/08/11 10:04:10;;;;;;;67.22;63.75;;;24.60;99.90;;;;;;5034265;28;20033;-73
2023/08/11 10:06:42;;;;;;;63.78;60.67;;;24.60;99.90;;;;;;5033842;28;20029;-74
2023/08/11 10:09:12;;;;;;;74.85;71.20;;;24.70;99.90;;;;;;5033799;28;20046;-73
2023/08/11 10:11:38;;;;;;;75.97;72.32;;;24.70;99.90;;;;;;5033735;28;20033;-76
2023/08/11 10:14:04;;;;;;;70.13;66.50;;;24.70;99.90;;;;;;5033908;28;20025;-73
2023/08/11 10:16:31;;;;;;;77.00;73.13;;;24.80;99.90;;;;;;5033270;28;20088;-74
2023/08/11 10:18:58;;;;;;;77.47;73.82;;;24.80;99.90;;;;;;5034156;28;20029;-74
2023/08/11 10:21:24;;;;;;;78.38;74.63;;;24.90;99.90;;;;;;5035005;28;20033;-74
2023/08/11 10:23:52;;;;;;;70.35;66.95;;;24.80;99.90;;;;;;5033876;28;20036;-74
2023/08/11 10:26:18;;;;;;;68.88;65.43;;;24.80;99.90;;;;;;5033683;28;20383;-74
2023/08/11 10:28:44;;;;;;;62.80;59.72;;;24.90;99.90;;;;;;5033620;28;20034;-74
2023/08/11 10:31:10;;;;;;;82.78;78.75;;;25.00;99.90;;;;;;5034166;28;20045;-74
2023/08/11 10:33:36;;;;;;;71.80;68.25;;;25.00;99.90;;;;;;5032399;28;20037;-74
2023/08/11 10:36:02;;;;;;;72.13;68.53;;;25.10;99.90;;;;;;5034780;28;20066;-74
2023/08/11 10:38:32;;;;;;;80.57;76.63;;;25.10;99.90;;;;;;5033587;28;20033;-74
2023/08/11 10:41:09;;;;;;;75.55;71.93;;;25.20;99.90;;;;;;5033268;28;20033;-74
2023/08/11 10:43:43;;;;;;;83.78;79.78;;;25.10;99.90;;;;;;5033333;28;20041;-74
2023/08/11 10:46:22;;;;;;;93.68;89.15;;;25.10;99.90;;;;;;5034094;28;20038;-74
2023/08/11 10:48:50;;;;;;;75.05;71.25;;;25.10;99.90;;;;;;5034575;28;20029;-74
2023/08/11 10:51:24;;;;;;;92.82;88.28;;;25.00;99.90;;;;;;5033102;28;20034;-74
2023/08/11 10:53:50;;;;;;;76.75;72.85;;;25.00;99.90;;;;;;5033526;28;20036;-75
2023/08/11 10:56:16;;;;;;;69.95;66.57;;;25.00;99.90;;;;;;5032792;28;20025;-74
2023/08/11 10:58:43;;;;;;;79.43;75.68;;;25.10;99.90;;;;;;5016257;28;20037;-74
2023/08/11 11:01:09;;;;;;;74.60;70.93;;;25.10;99.90;;;;;;5032559;28;20030;-74
2023/08/11 11:03:35;;;;;;;55.88;53.13;;;24.90;99.90;;;;;;5032985;28;20052;-74
2023/08/11 11:06:04;;;;;;;57.53;54.67;;;24.80;99.90;;;;;;5032898;28;20025;-74
2023/08/11 11:08:30;;;;;;;52.42;49.78;;;24.80;99.90;;;;;;5033131;28;20030;-74
2023/08/11 11:10:56;;;;;;;54.63;51.90;;;24.80;99.90;;;;;;5033671;28;20026;-74
2023/08/11 11:13:23;;;;;;;68.00;64.60;;;24.90;99.90;;;;;;5034428;28;20022;-74
2023/08/11 11:15:49;;;;;;;61.33;58.22;;;24.80;99.90;;;;;;5015815;28;20486;-73
2023/08/11 11:18:15;;;;;;;55.60;52.85;;;24.80;99.90;;;;;;5032922;28;20029;-73
2023/08/11 11:20:41;;;;;;;53.90;50.92;;;24.70;99.90;;;;;;5032569;28;20029;-74
2023/08/11 11:23:07;;;;;;;57.03;54.25;;;24.70;99.90;;;;;;5032722;28;20040;-73
2023/08/11 11:25:33;;;;;;;59.55;56.58;;;24.80;99.90;;;;;;5033337;28;20009;-74
2023/08/11 11:27:59;;;;;;;57.17;54.40;;;24.80;99.90;;;;;;5032517;28;20039;-76
2023/08/11 11:30:25;;;;;;;60.05;57.05;;;24.90;99.90;;;;;;5033060;28;20045;-73
2023/08/11 11:32:51;;;;;;;59.60;56.63;;;24.90;99.90;;;;;;5033910;28;20033;-73
2023/08/11 11:35:17;;;;;;;58.63;55.63;;;25.00;99.90;;;;;;5032489;28;20093;-74
2023/08/11 11:37:44;;;;;;;61.45;58.35;;;25.00;99.90;;;;;;5033804;28;20032;-73
2023/08/11 11:40:11;;;;;;;59.60;56.65;;;24.90;99.90;;;;;;5033133;28;20074;-73
2023/08/11 11:42:37;;;;;;;55.75;53.08;;;24.90;99.90;;;;;;5033645;28;20470;-73
2023/08/11 11:45:04;;;;;;;54.58;51.88;;;24.90;99.90;;;;;;5033056;28;20422;-73
2023/08/11 11:47:30;;;;;;;62.50;59.42;;;24.90;99.90;;;;;;5031740;28;20021;-73
2023/08/11 11:50:01;;;;;;;87.35;83.05;;;24.90;99.90;;;;;;5015954;28;20026;-73
2023/08/11 11:52:27;;;;;;;76.65;72.95;;;24.90;99.90;;;;;;5031640;28;20045;-73
2023/08/11 11:54:54;;;;;;;72.00;68.57;;;24.80;99.90;;;;;;5031808;28;20401;-73
2023/08/11 11:57:21;;;;;;;60.90;57.88;;;24.70;99.90;;;;;;5031905;28;20025;-73
2023/08/11 11:59:48;;;;;;;61.50;58.45;;;24.60;99.90;;;;;;5033356;28;20467;-73
2023/08/11 12:02:15;;;;;;;60.15;57.13;;;24.60;99.90;;;;;;5031290;28;20045;-73
2023/08/11 12:04:47;;;;;;;56.20;53.42;;;24.60;99.90;;;;;;5031988;28;20037;-74
2023/08/11 12:07:30;;;;;;;56.42;53.58;;;24.70;99.90;;;;;;5031697;28;20034;-73
2023/08/11 12:09:56;;;;;;;52.85;50.25;;;24.70;99.90;;;;;;5031337;28;20127;-73
2023/08/11 12:12:26;;;;;;;54.55;51.78;;;24.80;99.90;;;;;;5032893;28;20029;-73
2023/08/11 12:14:52;;;;;;;56.45;53.58;;;24.80;99.90;;;;;;5031826;28;20519;-73
2023/08/11 12:17:18;;;;;;;56.45;53.45;;;24.80;99.90;;;;;;5031075;28;20038;-73
2023/08/11 12:19:45;;;;;;;72.68;69.07;;;24.70;99.90;;;;;;5033018;28;20041;-73
2023/08/11 12:22:11;;;;;;;74.20;70.53;;;24.80;99.90;;;;;;5031450;28;20021;-73
2023/08/11 12:24:37;;;;;;;116.15;110.60;;;24.70;99.90;;;;;;5031347;28;20041;-74